createdAt,value
2022-11-28T00:00:53.497Z,101835.28
2022-11-28T00:03:15.925Z,101831.41
2022-11-28T00:05:40.860Z,101828.91
2022-11-28T00:08:08.001Z,101830.00
2022-11-28T00:10:30.301Z,101834.88
2022-11-28T00:12:52.583Z,101835.47
2022-11-28T00:15:14.908Z,101835.22
2022-11-28T00:17:37.170Z,101837.38
2022-11-28T00:19:59.462Z,101836.53
2022-11-28T00:22:21.754Z,101837.38
2022-11-28T00:24:44.402Z,101837.72
2022-11-28T00:27:06.933Z,101838.00
2022-11-28T00:29:29.251Z,101839.34
2022-11-28T00:31:51.780Z,101837.22
2022-11-28T00:34:14.697Z,101831.13
2022-11-28T00:36:37.001Z,101833.88
2022-11-28T00:38:59.349Z,101831.75
2022-11-28T00:41:29.313Z,101832.88
2022-11-28T00:43:51.848Z,101828.25
2022-11-28T00:46:14.441Z,101833.38
2022-11-28T00:48:37.091Z,101837.19
2022-11-28T00:51:27.546Z,101832.63
2022-11-28T00:53:51.635Z,101830.50
2022-11-28T00:56:17.590Z,101822.19
2022-11-28T00:58:40.111Z,101821.28
2022-11-28T01:01:15.708Z,101815.31
2022-11-28T01:03:38.901Z,101814.81
2022-11-28T01:06:01.184Z,101814.81
2022-11-28T01:08:23.530Z,101809.34
2022-11-28T01:10:45.983Z,101811.03
2022-11-28T01:13:09.505Z,101800.97
2022-11-28T01:15:31.820Z,101797.19
2022-11-28T01:17:54.143Z,101795.44
2022-11-28T01:20:16.410Z,101790.53
2022-11-28T01:22:38.697Z,101789.81
2022-11-28T01:25:01.013Z,101799.06
2022-11-28T01:27:23.377Z,101795.44
2022-11-28T01:29:45.674Z,101786.31
2022-11-28T01:32:07.960Z,101795.25
2022-11-28T01:34:30.249Z,101789.28
2022-11-28T01:36:52.548Z,101784.31
2022-11-28T01:39:15.803Z,101777.19
2022-11-28T01:41:38.070Z,101786.38
2022-11-28T01:44:15.232Z,101780.22
2022-11-28T01:46:37.645Z,101780.47
2022-11-28T01:49:51.760Z,101778.94
2022-11-28T01:52:15.956Z,101777.84
2022-11-28T01:54:38.237Z,101776.56
2022-11-28T01:57:13.674Z,101780.41
2022-11-28T01:59:39.257Z,101783.84
2022-11-28T02:02:03.154Z,101779.94
2022-11-28T02:04:27.854Z,101767.38
2022-11-28T02:06:50.176Z,101776.66
2022-11-28T02:09:13.949Z,101768.19
2022-11-28T02:12:02.255Z,101770.13
2022-11-28T02:15:04.907Z,101761.31
2022-11-28T02:18:04.349Z,101760.63
2022-11-28T02:20:54.129Z,101768.38
2022-11-28T02:23:24.078Z,101768.94
2022-11-28T02:26:26.081Z,101768.03
2022-11-28T02:29:51.400Z,101758.88
2022-11-28T02:32:29.349Z,101758.88
2022-11-28T02:35:01.751Z,101756.28
2022-11-28T02:37:42.308Z,101760.56
2022-11-28T02:40:07.653Z,101746.06
2022-11-28T02:43:05.703Z,101754.16
2022-11-28T02:45:41.968Z,101752.63
2022-11-28T02:48:47.121Z,101760.56
2022-11-28T02:51:33.484Z,101754.25
2022-11-28T02:53:55.973Z,101754.66
2022-11-28T02:56:18.243Z,101764.66
2022-11-28T02:58:40.544Z,101754.81
2022-11-28T03:01:02.983Z,101750.41
2022-11-28T03:04:12.367Z,101756.25
2022-11-28T03:07:15.085Z,101745.72
2022-11-28T03:09:46.359Z,101753.56
2022-11-28T03:12:46.141Z,101753.06
2022-11-28T03:15:08.850Z,101754.75
2022-11-28T03:17:52.192Z,101748.22
2022-11-28T03:20:44.984Z,101749.41
2022-11-28T03:23:16.359Z,101748.78
2022-11-28T03:26:10.748Z,101750.81
2022-11-28T03:28:51.900Z,101750.53
2022-11-28T03:32:02.081Z,101745.84
2022-11-28T03:34:29.150Z,101753.06
2022-11-28T03:37:01.661Z,101741.09
2022-11-28T03:39:27.990Z,101747.97
2022-11-28T03:41:57.349Z,101748.44
2022-11-28T03:44:27.737Z,101749.41
2022-11-28T03:46:50.126Z,101753.47
2022-11-28T03:49:13.527Z,101756.91
2022-11-28T03:51:44.092Z,101751.59
2022-11-28T03:54:12.347Z,101759.31
2022-11-28T03:56:57.233Z,101748.88
2022-11-28T03:59:22.773Z,101745.56
2022-11-28T04:02:16.105Z,101738.72
2022-11-28T04:05:00.124Z,101746.56
2022-11-28T04:08:10.713Z,101741.13
2022-11-28T04:10:39.596Z,101747.16
2022-11-28T04:13:24.325Z,101749.06
2022-11-28T04:15:59.783Z,101745.03
2022-11-28T04:19:20.160Z,101740.75
2022-11-28T04:21:55.483Z,101739.00
2022-11-28T04:24:25.502Z,101733.53
2022-11-28T04:26:50.457Z,101735.16
2022-11-28T04:29:16.381Z,101731.63
2022-11-28T04:31:38.867Z,101730.19
2022-11-28T04:34:05.765Z,101726.91
2022-11-28T04:36:28.099Z,101739.00
2022-11-28T04:38:56.346Z,101738.38
2022-11-28T04:41:20.888Z,101730.19
2022-11-28T04:43:48.272Z,101725.22
2022-11-28T04:46:18.295Z,101724.88
2022-11-28T04:48:40.738Z,101728.44
2022-11-28T04:51:25.026Z,101725.00
2022-11-28T04:54:05.181Z,101732.94
2022-11-28T04:57:20.481Z,101724.03
2022-11-28T04:59:42.789Z,101732.34
2022-11-28T05:02:05.278Z,101723.81
2022-11-28T05:04:27.627Z,101734.72
2022-11-28T05:06:50.167Z,101733.53
2022-11-28T05:09:13.818Z,101735.28
2022-11-28T05:11:36.119Z,101735.41
2022-11-28T05:13:58.398Z,101732.00
2022-11-28T05:16:21.096Z,101723.69
2022-11-28T05:18:44.043Z,101724.06
2022-11-28T05:21:09.378Z,101717.91
2022-11-28T05:23:31.660Z,101716.22
2022-11-28T05:25:54.025Z,101714.34
2022-11-28T05:28:16.304Z,101709.13
2022-11-28T05:30:38.605Z,101710.78
2022-11-28T05:33:01.163Z,101705.22
2022-11-28T05:35:23.550Z,101702.59
2022-11-28T05:37:45.852Z,101705.09
2022-11-28T05:40:08.601Z,101686.72
2022-11-28T05:42:35.107Z,101693.59
2022-11-28T05:44:57.402Z,101693.25
2022-11-28T05:47:19.704Z,101695.59
2022-11-28T05:49:42.936Z,101703.31
2022-11-28T05:52:05.431Z,101713.63
2022-11-28T05:54:27.788Z,101706.63
2022-11-28T05:56:50.091Z,101710.41
2022-11-28T05:59:13.308Z,101710.78
2022-11-28T06:01:35.520Z,101712.66
2022-11-28T06:04:01.260Z,101708.88
2022-11-28T06:06:23.893Z,101712.31
2022-11-28T06:08:46.902Z,101698.22
2022-11-28T06:11:09.420Z,101708.41
2022-11-28T06:13:31.858Z,101702.97
2022-11-28T06:15:54.291Z,101702.97
2022-11-28T06:18:16.641Z,101698.56
2022-11-28T06:20:38.951Z,101693.75
2022-11-28T06:23:01.295Z,101690.88
2022-11-28T06:25:23.604Z,101683.53
2022-11-28T06:27:45.979Z,101688.28
2022-11-28T06:30:08.772Z,101692.06
2022-11-28T06:32:31.049Z,101701.31
2022-11-28T06:34:53.347Z,101707.22
2022-11-28T06:37:15.652Z,101701.41
2022-11-28T06:39:38.086Z,101700.56
2022-11-28T06:42:00.379Z,101686.84
2022-11-28T06:44:22.692Z,101684.72
2022-11-28T06:46:45.033Z,101689.81
2022-11-28T06:49:07.457Z,101689.34
2022-11-28T06:51:29.752Z,101690.41
2022-11-28T06:53:52.463Z,101683.44
2022-11-28T06:56:17.375Z,101686.84
2022-11-28T06:58:39.820Z,101679.63
2022-11-28T07:01:13.433Z,101685.22
2022-11-28T07:03:36.225Z,101677.72
2022-11-28T07:06:04.128Z,101682.59
2022-11-28T07:08:26.498Z,101675.00
2022-11-28T07:10:48.785Z,101686.75
2022-11-28T07:13:11.103Z,101677.38
2022-11-28T07:15:33.391Z,101679.63
2022-11-28T07:17:55.694Z,101683.19
2022-11-28T07:20:18.032Z,101672.53
2022-11-28T07:22:40.327Z,101683.78
2022-11-28T07:25:02.634Z,101693.03
2022-11-28T07:27:24.917Z,101679.41
2022-11-28T07:29:47.210Z,101670.97
2022-11-28T07:32:09.716Z,101678.44
2022-11-28T07:34:32.291Z,101664.72
2022-11-28T07:36:54.605Z,101657.25
2022-11-28T07:39:17.640Z,101655.38
2022-11-28T07:41:39.949Z,101659.25
2022-11-28T07:44:03.532Z,101659.03
2022-11-28T07:46:26.198Z,101652.84
2022-11-28T07:48:48.617Z,101651.56
2022-11-28T07:51:14.094Z,101659.28
2022-11-28T07:53:37.116Z,101652.28
2022-11-28T07:56:08.118Z,101655.81
2022-11-28T07:58:30.603Z,101654.63
2022-11-28T08:00:52.923Z,101645.88
2022-11-28T08:03:15.218Z,101649.19
2022-11-28T08:05:37.521Z,101646.94
2022-11-28T08:07:59.938Z,101650.84
2022-11-28T08:10:22.276Z,101641.97
2022-11-28T08:12:44.765Z,101646.47
2022-11-28T08:15:07.528Z,101647.78
2022-11-28T08:17:29.807Z,101641.72
2022-11-28T08:19:52.129Z,101648.25
2022-11-28T08:22:14.418Z,101649.31
2022-11-28T08:24:36.769Z,101647.28
2022-11-28T08:26:59.093Z,101651.91
2022-11-28T08:29:21.422Z,101646.34
2022-11-28T08:31:43.724Z,101649.41
2022-11-28T08:34:10.046Z,101650.00
2022-11-28T08:36:32.469Z,101646.91
2022-11-28T08:39:03.898Z,101643.22
2022-11-28T08:41:37.123Z,101650.78
2022-11-28T08:43:59.462Z,101642.50
2022-11-28T08:46:22.456Z,101654.84
2022-11-28T08:48:44.944Z,101648.94
2022-11-28T08:51:07.637Z,101663.25
2022-11-28T08:53:29.931Z,101655.56
2022-11-28T08:55:52.248Z,101644.91
2022-11-28T08:57:54.461Z,101647.78
2022-11-28T08:59:56.520Z,101652.38
2022-11-28T09:02:17.769Z,101642.78
2022-11-28T09:04:40.353Z,101651.19
2022-11-28T09:07:02.695Z,101642.66
2022-11-28T09:09:26.323Z,101641.94
2022-11-28T09:11:51.491Z,101645.34
2022-11-28T09:14:13.817Z,101636.19
2022-11-28T09:16:37.562Z,101638.59
2022-11-28T09:18:59.916Z,101632.63
2022-11-28T09:21:22.309Z,101635.78
2022-11-28T09:23:44.962Z,101635.31
2022-11-28T09:26:13.782Z,101640.88
2022-11-28T09:28:36.078Z,101636.56
2022-11-28T09:31:02.869Z,101629.41
2022-11-28T09:33:25.190Z,101634.72
2022-11-28T09:35:47.592Z,101625.66
2022-11-28T09:38:08.107Z,101629.41
2022-11-28T09:40:43.204Z,101623.22
2022-11-28T09:43:04.528Z,101622.72
2022-11-28T09:45:25.022Z,101621.72
2022-11-28T09:47:58.043Z,101624.88
2022-11-28T09:50:28.621Z,101626.38
2022-11-28T09:53:21.086Z,101628.13
2022-11-28T09:55:50.057Z,101625.78
2022-11-28T09:58:39.158Z,101622.94
2022-11-28T10:01:26.793Z,101627.16
2022-11-28T10:04:02.155Z,101615.25
2022-11-28T10:06:41.203Z,101612.22
2022-11-28T10:09:45.739Z,101600.84
2022-11-28T10:12:36.029Z,101606.41
2022-11-28T10:15:11.858Z,101608.81
2022-11-28T10:18:06.091Z,101608.75
2022-11-28T10:20:48.128Z,101601.75
2022-11-28T10:23:01.907Z,101607.16
2022-11-28T10:25:14.066Z,101598.94
2022-11-28T10:27:16.629Z,101595.69
2022-11-28T10:29:38.540Z,101581.19
2022-11-28T10:35:42.506Z,101584.94
2022-11-28T10:37:44.898Z,101581.31
2022-11-28T10:39:56.664Z,101584.59
2022-11-28T10:42:11.931Z,101573.56
2022-11-28T10:44:27.282Z,101574.88
2022-11-28T10:46:59.795Z,101577.31
2022-11-28T10:49:24.910Z,101569.13
2022-11-28T10:51:35.106Z,101573.94
2022-11-28T10:53:59.901Z,101581.75
2022-11-28T10:56:49.505Z,101565.72
2022-11-28T10:59:27.545Z,101563.50
2022-11-28T11:01:37.146Z,101561.50
2022-11-28T11:03:40.425Z,101567.16
2022-11-28T11:05:43.453Z,101558.34
2022-11-28T11:07:55.484Z,101559.06
2022-11-28T11:10:17.285Z,101557.69
2022-11-28T11:12:25.454Z,101555.94
2022-11-28T11:14:36.943Z,101553.63
2022-11-28T11:16:59.302Z,101557.41
2022-11-28T11:19:01.866Z,101560.50
2022-11-28T11:21:20.575Z,101560.59
2022-11-28T11:23:23.560Z,101550.19
2022-11-28T11:25:27.309Z,101552.72
2022-11-28T11:27:29.838Z,101553.84
2022-11-28T11:29:35.784Z,101555.22
2022-11-28T11:31:44.355Z,101558.94
2022-11-28T11:33:50.224Z,101544.88
2022-11-28T11:35:52.502Z,101556.16
2022-11-28T11:38:14.214Z,101539.06
2022-11-28T11:40:29.076Z,101550.81
2022-11-28T11:42:33.280Z,101552.28
2022-11-28T11:44:36.668Z,101547.94
2022-11-28T11:47:07.026Z,101550.34
2022-11-28T11:49:17.177Z,101539.88
2022-11-28T11:51:28.364Z,101544.84
2022-11-28T11:53:30.980Z,101542.16
2022-11-28T11:55:49.310Z,101549.16
2022-11-28T11:57:52.932Z,101536.06
2022-11-28T12:00:02.987Z,101533.34
2022-11-28T12:02:32.475Z,101529.56
2022-11-28T12:04:46.493Z,101526.56
2022-11-28T12:06:52.242Z,101524.41
2022-11-28T12:09:22.844Z,101521.44
2022-11-28T12:11:35.767Z,101525.38
2022-11-28T12:13:38.594Z,101520.44
2022-11-28T12:15:46.220Z,101519.34
2022-11-28T12:18:30.117Z,101520.47
2022-11-28T12:20:56.115Z,101516.03
2022-11-28T12:23:17.057Z,101511.13
2022-11-28T12:25:49.066Z,101508.06
2022-11-28T12:27:58.543Z,101517.16
2022-11-28T12:30:45.080Z,101519.09
2022-11-28T12:33:08.816Z,101522.06
2022-11-28T12:35:44.704Z,101517.94
2022-11-28T12:38:28.524Z,101511.63
2022-11-28T12:41:12.331Z,101514.31
2022-11-28T12:43:47.179Z,101514.06
2022-11-28T12:46:23.115Z,101513.75
2022-11-28T12:49:15.006Z,101510.75
2022-11-28T12:51:59.768Z,101509.91
2022-11-28T12:54:28.573Z,101517.00
2022-11-28T12:57:33.388Z,101508.19
2022-11-28T13:00:21.606Z,101515.03
2022-11-28T13:03:21.187Z,101507.91
2022-11-28T13:06:11.715Z,101507.66
2022-11-28T13:08:49.379Z,101505.44
2022-11-28T13:11:46.080Z,101502.13
2022-11-28T13:14:42.458Z,101494.44
2022-11-28T13:17:36.703Z,101501.81
2022-11-28T13:20:20.087Z,101491.09
2022-11-28T13:23:14.276Z,101502.34
2022-11-28T13:26:05.489Z,101490.50
2022-11-28T13:28:54.504Z,101490.50
2022-11-28T13:31:33.055Z,101492.97
2022-11-28T13:33:56.132Z,101493.53
2022-11-28T13:39:50.525Z,101483.06
2022-11-28T13:43:03.349Z,101490.44
2022-11-28T13:45:32.466Z,101484.97
2022-11-28T13:47:55.688Z,101486.06
2022-11-28T13:50:30.188Z,101481.94
2022-11-28T13:53:21.515Z,101478.34
2022-11-28T13:55:48.706Z,101479.19
2022-11-28T13:58:40.344Z,101486.56
2022-11-28T14:01:21.015Z,101484.91
2022-11-28T14:03:58.739Z,101492.81
2022-11-28T14:06:54.600Z,101474.44
2022-11-28T14:09:16.837Z,101478.28
2022-11-28T14:12:08.480Z,101472.22
2022-11-28T14:14:55.398Z,101472.50
2022-11-28T14:17:56.409Z,101472.19
2022-11-28T14:20:37.445Z,101469.97
2022-11-28T14:23:02.631Z,101479.56
2022-11-28T14:25:41.222Z,101474.69
2022-11-28T14:28:06.214Z,101477.69
2022-11-28T14:30:36.445Z,101480.44
2022-11-28T14:33:19.414Z,101478.28
2022-11-28T14:35:50.821Z,101479.63
2022-11-28T14:38:43.300Z,101470.00
2022-11-28T14:41:11.992Z,101478.50
2022-11-28T14:43:53.406Z,101481.22
2022-11-28T14:46:15.638Z,101474.91
2022-11-28T14:48:42.125Z,101471.06
2022-11-28T14:51:04.634Z,101477.91
2022-11-28T14:53:38.688Z,101470.22
2022-11-28T14:56:14.684Z,101462.56
2022-11-28T14:58:37.477Z,101467.78
2022-11-28T15:01:00.157Z,101472.69
2022-11-28T15:03:49.497Z,101477.06
2022-11-28T15:06:20.991Z,101465.78
2022-11-28T15:09:14.900Z,101468.53
2022-11-28T15:12:22.561Z,101463.59
2022-11-28T15:14:47.233Z,101472.88
2022-11-28T15:17:12.178Z,101469.88
2022-11-28T15:19:44.867Z,101462.44
2022-11-28T15:22:09.769Z,101469.88
2022-11-28T15:24:37.105Z,101467.69
2022-11-28T15:27:24.473Z,101465.41
2022-11-28T15:29:54.177Z,101466.53
2022-11-28T15:32:16.724Z,101472.56
2022-11-28T15:34:39.032Z,101477.78
2022-11-28T15:37:06.720Z,101473.91
2022-11-28T15:39:40.024Z,101475.25
2022-11-28T15:42:03.926Z,101470.88
2022-11-28T15:44:26.261Z,101463.72
2022-11-28T15:46:48.712Z,101480.16
2022-11-28T15:49:32.702Z,101471.41
2022-11-28T15:51:56.811Z,101472.22
2022-11-28T15:54:37.239Z,101475.19
2022-11-28T15:57:00.123Z,101476.84
2022-11-28T15:59:22.421Z,101470.78
2022-11-28T16:01:44.727Z,101482.00
2022-11-28T16:04:17.493Z,101481.72
2022-11-28T16:06:41.361Z,101475.69
2022-11-28T16:09:20.136Z,101478.44
2022-11-28T16:11:42.794Z,101471.84
2022-11-28T16:14:09.588Z,101469.94
2022-11-28T16:16:35.574Z,101466.91
2022-11-28T16:18:59.649Z,101475.13
2022-11-28T16:21:24.774Z,101462.25
2022-11-28T16:23:47.151Z,101466.88
2022-11-28T16:26:22.574Z,101466.84
2022-11-28T16:29:02.497Z,101467.69
2022-11-28T16:31:26.547Z,101467.94
2022-11-28T16:33:49.707Z,101467.94
2022-11-28T16:36:22.131Z,101466.25
2022-11-28T16:38:44.591Z,101469.00
2022-11-28T16:41:06.965Z,101468.97
2022-11-28T16:43:36.498Z,101479.66
2022-11-28T16:46:03.827Z,101466.75
2022-11-28T16:48:28.755Z,101471.41
2022-11-28T16:51:03.168Z,101461.22
2022-11-28T16:53:58.819Z,101460.16
2022-11-28T16:56:30.279Z,101467.84
2022-11-28T16:59:14.384Z,101465.38
2022-11-28T17:01:36.725Z,101474.41
2022-11-28T17:03:59.095Z,101474.41
2022-11-28T17:06:37.011Z,101471.69
2022-11-28T17:08:59.567Z,101472.16
2022-11-28T17:11:24.494Z,101480.13
2022-11-28T17:13:46.892Z,101474.34
2022-11-28T17:16:17.000Z,101466.66
2022-11-28T17:18:39.321Z,101465.00
2022-11-28T17:21:01.630Z,101469.41
2022-11-28T17:23:26.818Z,101471.06
2022-11-28T17:25:49.112Z,101466.34
2022-11-28T17:28:13.761Z,101459.25
2022-11-28T17:30:39.680Z,101457.84
2022-11-28T17:33:02.119Z,101465.47
2022-11-28T17:35:24.769Z,101455.63
2022-11-28T17:37:47.050Z,101452.88
2022-11-28T17:40:28.141Z,101472.63
2022-11-28T17:42:50.420Z,101470.44
2022-11-28T17:45:15.790Z,101459.47
2022-11-28T17:47:38.130Z,101464.34
2022-11-28T17:50:00.512Z,101458.88
2022-11-28T17:52:27.878Z,101461.09
2022-11-28T17:54:50.315Z,101454.22
2022-11-28T17:57:12.915Z,101456.72
2022-11-28T17:59:36.101Z,101458.34
2022-11-28T18:01:58.466Z,101459.47
2022-11-28T18:04:20.812Z,101458.88
2022-11-28T18:06:47.045Z,101453.41
2022-11-28T18:09:12.262Z,101452.84
2022-11-28T18:11:35.936Z,101459.97
2022-11-28T18:13:58.447Z,101463.81
2022-11-28T18:16:22.932Z,101460.53
2022-11-28T18:18:45.681Z,101459.97
2022-11-28T18:21:08.983Z,101463.72
2022-11-28T18:23:31.214Z,101462.09
2022-11-28T18:25:53.514Z,101462.91
2022-11-28T18:28:19.092Z,101466.47
2022-11-28T18:30:43.474Z,101460.97
2022-11-28T18:33:05.759Z,101463.16
2022-11-28T18:35:28.118Z,101462.84
2022-11-28T18:37:50.480Z,101465.59
2022-11-28T18:40:13.313Z,101464.19
2022-11-28T18:42:36.205Z,101466.94
2022-11-28T18:44:58.520Z,101460.38
2022-11-28T18:47:20.875Z,101457.34
2022-11-28T18:49:43.413Z,101464.19
2022-11-28T18:52:05.951Z,101460.91
2022-11-28T18:54:31.035Z,101465.78
2022-11-28T18:56:53.376Z,101460.31
2022-11-28T18:59:15.673Z,101464.69
2022-11-28T19:01:38.044Z,101459.50
2022-11-28T19:04:06.425Z,101455.06
2022-11-28T19:06:28.824Z,101464.69
2022-11-28T19:08:56.507Z,101457.00
2022-11-28T19:11:19.155Z,101462.47
2022-11-28T19:13:46.446Z,101459.72
2022-11-28T19:16:11.073Z,101469.00
2022-11-28T19:18:33.885Z,101468.47
2022-11-28T19:20:56.217Z,101471.16
2022-11-28T19:23:18.546Z,101466.25
2022-11-28T19:25:40.819Z,101464.28
2022-11-28T19:28:03.132Z,101465.94
2022-11-28T19:30:25.482Z,101472.50
2022-11-28T19:32:48.065Z,101459.59
2022-11-28T19:35:10.407Z,101461.56
2022-11-28T19:37:32.728Z,101462.38
2022-11-28T19:39:58.517Z,101461.81
2022-11-28T19:42:23.424Z,101456.03
2022-11-28T19:44:45.724Z,101458.50
2022-11-28T19:47:08.057Z,101462.91
2022-11-28T19:49:30.460Z,101459.59
2022-11-28T19:51:54.483Z,101472.75
2022-11-28T19:54:19.758Z,101464.47
2022-11-28T19:56:42.310Z,101458.22
2022-11-28T19:59:04.676Z,101455.22
2022-11-28T20:01:28.167Z,101467.28
2022-11-28T20:03:50.930Z,101462.06
2022-11-28T20:06:22.631Z,101461.81
2022-11-28T20:08:45.255Z,101457.69
2022-11-28T20:11:15.776Z,101461.75
2022-11-28T20:13:38.196Z,101459.84
2022-11-28T20:16:08.998Z,101462.34
2022-11-28T20:18:31.533Z,101464.75
2022-11-28T20:20:53.835Z,101463.94
2022-11-28T20:23:16.164Z,101468.25
2022-11-28T20:25:38.499Z,101468.25
2022-11-28T20:28:01.035Z,101465.00
2022-11-28T20:30:23.442Z,101461.97
2022-11-28T20:32:45.728Z,101464.72
2022-11-28T20:35:09.589Z,101464.63
2022-11-28T20:37:31.927Z,101455.88
2022-11-28T20:39:54.367Z,101458.09
2022-11-28T20:42:16.656Z,101464.91
2022-11-28T20:44:38.984Z,101473.63
2022-11-28T20:47:01.359Z,101464.81
2022-11-28T20:49:23.714Z,101471.88
2022-11-28T20:51:46.234Z,101469.47
2022-11-28T20:54:08.612Z,101471.31
2022-11-28T20:56:42.003Z,101475.13
2022-11-28T20:59:16.896Z,101464.19
2022-11-28T21:01:39.217Z,101469.13
2022-11-28T21:04:02.827Z,101469.13
2022-11-28T21:06:25.207Z,101465.00
2022-11-28T21:08:47.761Z,101464.19
2022-11-28T21:11:50.101Z,101469.09
2022-11-28T21:14:04.504Z,101464.13
2022-11-28T21:16:28.671Z,101469.03
2022-11-28T21:18:30.729Z,101473.50
2022-11-28T21:20:32.750Z,101471.50
2022-11-28T21:22:35.428Z,101471.25
2022-11-28T21:24:56.034Z,101467.44
2022-11-28T21:27:18.355Z,101471.31
2022-11-28T21:29:40.741Z,101472.34
2022-11-28T21:32:03.106Z,101478.34
2022-11-28T21:34:25.521Z,101481.69
2022-11-28T21:36:47.852Z,101480.28
2022-11-28T21:39:18.874Z,101468.53
2022-11-28T21:41:21.384Z,101470.94
2022-11-28T21:43:23.811Z,101485.09
2022-11-28T21:45:25.945Z,101475.00
2022-11-28T21:47:28.060Z,101480.22
2022-11-28T21:49:30.520Z,101475.56
2022-11-28T21:51:32.590Z,101476.66
2022-11-28T21:53:34.913Z,101467.63
2022-11-28T21:55:37.291Z,101474.19
2022-11-28T21:57:42.132Z,101471.13
2022-11-28T21:59:44.543Z,101474.19
2022-11-28T22:01:46.879Z,101469.56
2022-11-28T22:03:49.280Z,101471.19
2022-11-28T22:05:52.889Z,101468.22
2022-11-28T22:07:55.086Z,101465.47
2022-11-28T22:09:57.190Z,101465.72
2022-11-28T22:11:59.332Z,101467.88
2022-11-28T22:14:01.582Z,101468.22
2022-11-28T22:16:27.062Z,101468.22
2022-11-28T22:18:47.972Z,101458.03
2022-11-28T22:21:43.308Z,101454.75
2022-11-28T22:23:52.816Z,101457.47
2022-11-28T22:26:15.282Z,101462.44
2022-11-28T22:28:37.990Z,101463.50
2022-11-28T22:31:09.038Z,101452.25
2022-11-28T22:33:31.370Z,101456.97
2022-11-28T22:35:53.703Z,101454.97
2022-11-28T22:38:17.334Z,101456.41
2022-11-28T22:40:39.656Z,101454.22
2022-11-28T22:43:01.970Z,101453.91
2022-11-28T22:45:24.288Z,101455.81
2022-11-28T22:47:46.612Z,101452.00
2022-11-28T22:50:09.309Z,101458.03
2022-11-28T22:52:31.587Z,101461.59
2022-11-28T22:54:53.940Z,101457.19
2022-11-28T22:57:16.447Z,101459.13
2022-11-28T22:59:38.766Z,101454.75
2022-11-28T23:02:01.657Z,101461.59
2022-11-28T23:04:23.998Z,101452.25
2022-11-28T23:06:46.345Z,101453.91
2022-11-28T23:09:09.330Z,101461.03
2022-11-28T23:11:33.156Z,101451.44
2022-11-28T23:13:55.574Z,101454.19
2022-11-28T23:16:24.218Z,101451.44
2022-11-28T23:18:47.833Z,101454.19
2022-11-28T23:21:10.475Z,101451.44
2022-11-28T23:23:33.849Z,101449.84
2022-11-28T23:25:56.150Z,101454.78
2022-11-28T23:28:18.458Z,101457.19
2022-11-28T23:30:40.793Z,101455.28
2022-11-28T23:33:03.074Z,101458.84
2022-11-28T23:35:25.392Z,101463.50
2022-11-28T23:37:47.693Z,101462.44
2022-11-28T23:40:10.899Z,101452.31
2022-11-28T23:42:33.239Z,101460.25
2022-11-28T23:44:55.560Z,101455.88
2022-11-28T23:47:17.907Z,101452.06
2022-11-28T23:49:40.243Z,101455.28
2022-11-28T23:52:02.670Z,101456.13
2022-11-28T23:54:25.521Z,101448.50
2022-11-28T23:56:47.830Z,101454.22
2022-11-28T23:59:10.823Z,101446.88
